sensor_id;sensor_type;location;lat;lon;timestamp;pressure;altitude;pressure_sealevel;temperature;humidity
79374;BME280;68844;53.128;17.958;2023-11-18T00:01:55;101451.58;;;1.23;92.27
79374;BME280;68844;53.128;17.958;2023-11-18T00:04:21;101455.11;;;1.16;92.33
79374;BME280;68844;53.128;17.958;2023-11-18T00:06:48;101458.77;;;1.13;92.03
79374;BME280;68844;53.128;17.958;2023-11-18T00:09:15;101459.46;;;1.13;92.26
79374;BME280;68844;53.128;17.958;2023-11-18T00:11:42;101466.23;;;1.11;92.14
79374;BME280;68844;53.128;17.958;2023-11-18T00:14:09;101468.82;;;1.12;92.54
79374;BME280;68844;53.128;17.958;2023-11-18T00:16:37;101470.56;;;1.13;92.60
79374;BME280;68844;53.128;17.958;2023-11-18T00:19:05;101472.47;;;1.14;92.85
79374;BME280;68844;53.128;17.958;2023-11-18T00:21:32;101473.16;;;1.14;92.35
79374;BME280;68844;53.128;17.958;2023-11-18T00:23:59;101476.10;;;1.15;92.55
79374;BME280;68844;53.128;17.958;2023-11-18T00:26:25;101471.25;;;1.13;92.71
79374;BME280;68844;53.128;17.958;2023-11-18T00:28:56;101477.48;;;1.16;92.97
79374;BME280;68844;53.128;17.958;2023-11-18T00:31:23;101483.86;;;1.22;92.81
79374;BME280;68844;53.128;17.958;2023-11-18T00:33:51;101483.84;;;1.24;92.46
79374;BME280;68844;53.128;17.958;2023-11-18T00:36:19;101490.59;;;1.26;92.19
79374;BME280;68844;53.128;17.958;2023-11-18T00:38:45;101493.89;;;1.28;92.45
79374;BME280;68844;53.128;17.958;2023-11-18T00:41:13;101499.61;;;1.28;92.48
79374;BME280;68844;53.128;17.958;2023-11-18T00:43:40;101497.52;;;1.27;92.97
79374;BME280;68844;53.128;17.958;2023-11-18T00:46:07;101501.35;;;1.28;92.70
79374;BME280;68844;53.128;17.958;2023-11-18T00:48:33;101503.40;;;1.30;92.25
79374;BME280;68844;53.128;17.958;2023-11-18T00:51:00;101509.48;;;1.29;92.16
79374;BME280;68844;53.128;17.958;2023-11-18T00:53:27;101508.84;;;1.22;92.59
79374;BME280;68844;53.128;17.958;2023-11-18T00:55:53;101521.52;;;1.18;92.54
79374;BME280;68844;53.128;17.958;2023-11-18T00:58:21;101520.14;;;1.18;92.78
79374;BME280;68844;53.128;17.958;2023-11-18T01:00:47;101520.30;;;1.22;92.75
79374;BME280;68844;53.128;17.958;2023-11-18T01:03:14;101516.48;;;1.23;92.85
79374;BME280;68844;53.128;17.958;2023-11-18T01:05:41;101521.01;;;1.19;92.80
79374;BME280;68844;53.128;17.958;2023-11-18T01:08:07;101525.39;;;1.10;92.98
79374;BME280;68844;53.128;17.958;2023-11-18T01:10:35;101527.27;;;1.12;93.16
79374;BME280;68844;53.128;17.958;2023-11-18T01:13:01;101525.51;;;1.19;92.90
79374;BME280;68844;53.128;17.958;2023-11-18T01:15:28;101526.20;;;1.19;92.67
79374;BME280;68844;53.128;17.958;2023-11-18T01:17:55;101524.64;;;1.20;92.73
79374;BME280;68844;53.128;17.958;2023-11-18T01:20:21;101524.80;;;1.23;92.97
79374;BME280;68844;53.128;17.958;2023-11-18T01:22:49;101527.23;;;1.20;92.53
79374;BME280;68844;53.128;17.958;2023-11-18T01:25:16;101532.11;;;1.17;92.83
79374;BME280;68844;53.128;17.958;2023-11-18T01:27:44;101529.89;;;1.13;92.66
79374;BME280;68844;53.128;17.958;2023-11-18T01:30:14;101532.52;;;1.05;92.36
79374;BME280;68844;53.128;17.958;2023-11-18T01:32:41;101532.71;;;1.04;92.62
79374;BME280;68844;53.128;17.958;2023-11-18T01:35:08;101532.75;;;0.97;92.43
79374;BME280;68844;53.128;17.958;2023-11-18T01:37:37;101531.39;;;0.92;92.52
79374;BME280;68844;53.128;17.958;2023-11-18T01:40:05;101533.14;;;0.87;92.47
79374;BME280;68844;53.128;17.958;2023-11-18T01:42:34;101532.47;;;0.84;92.56
79374;BME280;68844;53.128;17.958;2023-11-18T01:45:01;101535.23;;;0.86;92.62
79374;BME280;68844;53.128;17.958;2023-11-18T01:47:33;101536.46;;;0.84;92.92
79374;BME280;68844;53.128;17.958;2023-11-18T01:50:00;101534.21;;;0.84;93.19
79374;BME280;68844;53.128;17.958;2023-11-18T01:52:28;101532.30;;;0.82;92.75
79374;BME280;68844;53.128;17.958;2023-11-18T01:54:56;101533.86;;;0.78;92.86
79374;BME280;68844;53.128;17.958;2023-11-18T01:57:23;101536.13;;;0.83;93.06
79374;BME280;68844;53.128;17.958;2023-11-18T01:59:49;101538.86;;;0.87;92.89
79374;BME280;68844;53.128;17.958;2023-11-18T02:02:16;101545.28;;;0.88;93.07
79374;BME280;68844;53.128;17.958;2023-11-18T02:04:43;101549.98;;;0.83;93.01
79374;BME280;68844;53.128;17.958;2023-11-18T02:07:11;101551.20;;;0.79;93.09
79374;BME280;68844;53.128;17.958;2023-11-18T02:09:42;101549.79;;;0.85;92.95
79374;BME280;68844;53.128;17.958;2023-11-18T02:12:31;101553.60;;;0.89;93.24
79374;BME280;68844;53.128;17.958;2023-11-18T02:15:05;101555.84;;;0.91;93.44
79374;BME280;68844;53.128;17.958;2023-11-18T02:17:41;101559.50;;;0.85;93.62
79374;BME280;68844;53.128;17.958;2023-11-18T02:20:12;101559.85;;;0.85;93.44
79374;BME280;68844;53.128;17.958;2023-11-18T02:22:43;101556.39;;;0.85;93.42
79374;BME280;68844;53.128;17.958;2023-11-18T02:25:15;101558.48;;;0.83;93.27
79374;BME280;68844;53.128;17.958;2023-11-18T02:27:42;101557.98;;;0.76;93.57
79374;BME280;68844;53.128;17.958;2023-11-18T02:30:10;101559.38;;;0.73;93.51
79374;BME280;68844;53.128;17.958;2023-11-18T02:32:54;101564.40;;;0.73;93.72
79374;BME280;68844;53.128;17.958;2023-11-18T02:35:36;101568.36;;;0.78;93.45
79374;BME280;68844;53.128;17.958;2023-11-18T02:38:04;101572.34;;;0.79;93.64
79374;BME280;68844;53.128;17.958;2023-11-18T02:40:39;101576.16;;;0.81;93.89
79374;BME280;68844;53.128;17.958;2023-11-18T02:43:10;101580.15;;;0.83;93.75
79374;BME280;68844;53.128;17.958;2023-11-18T02:45:37;101580.67;;;0.81;93.69
79374;BME280;68844;53.128;17.958;2023-11-18T02:48:06;101585.51;;;0.88;93.66
79374;BME280;68844;53.128;17.958;2023-11-18T02:50:33;101592.41;;;0.94;93.70
79374;BME280;68844;53.128;17.958;2023-11-18T02:53:02;101592.58;;;0.94;93.70
79374;BME280;68844;53.128;17.958;2023-11-18T02:55:29;101593.28;;;0.94;93.67
79374;BME280;68844;53.128;17.958;2023-11-18T02:57:56;101597.79;;;0.93;93.51
79374;BME280;68844;53.128;17.958;2023-11-18T03:00:23;101603.34;;;0.95;93.22
79374;BME280;68844;53.128;17.958;2023-11-18T03:02:51;101604.90;;;0.95;93.27
79374;BME280;68844;53.128;17.958;2023-11-18T03:05:18;101605.94;;;0.93;93.64
79374;BME280;68844;53.128;17.958;2023-11-18T03:07:45;101605.59;;;0.92;93.49
79374;BME280;68844;53.128;17.958;2023-11-18T03:10:16;101606.63;;;0.92;93.52
79374;BME280;68844;53.128;17.958;2023-11-18T03:12:50;101611.31;;;0.97;93.10
79374;BME280;68844;53.128;17.958;2023-11-18T03:15:19;101616.14;;;1.01;93.31
79374;BME280;68844;53.128;17.958;2023-11-18T03:17:46;101620.13;;;0.99;93.25
79374;BME280;68844;53.128;17.958;2023-11-18T03:20:21;101623.10;;;0.95;93.44
79374;BME280;68844;53.128;17.958;2023-11-18T03:22:50;101631.77;;;0.94;93.66
79374;BME280;68844;53.128;17.958;2023-11-18T03:25:19;101637.66;;;0.97;93.51
79374;BME280;68844;53.128;17.958;2023-11-18T03:27:48;101640.74;;;1.05;93.57
79374;BME280;68844;53.128;17.958;2023-11-18T03:30:14;101647.67;;;1.10;93.39
79374;BME280;68844;53.128;17.958;2023-11-18T03:32:41;101649.76;;;1.09;93.35
79374;BME280;68844;53.128;17.958;2023-11-18T03:35:08;101653.55;;;1.11;93.61
79374;BME280;68844;53.128;17.958;2023-11-18T03:37:36;101657.55;;;1.13;93.68
79374;BME280;68844;53.128;17.958;2023-11-18T03:40:12;101664.45;;;1.20;93.64
79374;BME280;68844;53.128;17.958;2023-11-18T03:42:43;101669.64;;;1.26;93.26
79374;BME280;68844;53.128;17.958;2023-11-18T03:45:10;101672.07;;;1.28;93.54
79374;BME280;68844;53.128;17.958;2023-11-18T03:47:36;101676.89;;;1.31;93.76
79374;BME280;68844;53.128;17.958;2023-11-18T03:50:03;101679.70;;;1.29;93.49
79374;BME280;68844;53.128;17.958;2023-11-18T03:52:31;101681.95;;;1.27;93.41
79374;BME280;68844;53.128;17.958;2023-11-18T03:54:58;101684.53;;;1.30;93.30
79374;BME280;68844;53.128;17.958;2023-11-18T03:57:24;101681.41;;;1.33;93.29
79374;BME280;68844;53.128;17.958;2023-11-18T03:59:51;101676.89;;;1.34;93.12
79374;BME280;68844;53.128;17.958;2023-11-18T04:02:18;101680.88;;;1.33;93.26
79374;BME280;68844;53.128;17.958;2023-11-18T04:04:45;101676.72;;;1.33;93.60
79374;BME280;68844;53.128;17.958;2023-11-18T04:07:12;101683.67;;;1.33;93.23
79374;BME280;68844;53.128;17.958;2023-11-18T04:09:39;101686.94;;;1.37;93.35
79374;BME280;68844;53.128;17.958;2023-11-18T04:12:08;101690.21;;;1.43;93.23
79374;BME280;68844;53.128;17.958;2023-11-18T04:14:35;101692.80;;;1.44;93.04
79374;BME280;68844;53.128;17.958;2023-11-18T04:17:01;101694.37;;;1.43;93.32
79374;BME280;68844;53.128;17.958;2023-11-18T04:19:28;101696.46;;;1.41;93.15
79374;BME280;68844;53.128;17.958;2023-11-18T04:21:55;101701.52;;;1.38;93.14
79374;BME280;68844;53.128;17.958;2023-11-18T04:24:21;101707.05;;;1.39;93.19
79374;BME280;68844;53.128;17.958;2023-11-18T04:26:49;101712.41;;;1.43;93.16
79374;BME280;68844;53.128;17.958;2023-11-18T04:29:15;101717.63;;;1.47;92.81
79374;BME280;68844;53.128;17.958;2023-11-18T04:31:42;101720.05;;;1.46;93.12
79374;BME280;68844;53.128;17.958;2023-11-18T04:34:09;101716.93;;;1.44;93.00
79374;BME280;68844;53.128;17.958;2023-11-18T04:36:35;101716.27;;;1.41;93.02
79374;BME280;68844;53.128;17.958;2023-11-18T04:39:02;101716.79;;;1.40;93.09
79374;BME280;68844;53.128;17.958;2023-11-18T04:41:30;101719.71;;;1.44;92.90
79374;BME280;68844;53.128;17.958;2023-11-18T04:43:58;101723.00;;;1.48;92.96
79374;BME280;68844;53.128;17.958;2023-11-18T04:46:25;101724.39;;;1.48;93.14
79374;BME280;68844;53.128;17.958;2023-11-18T04:48:52;101725.77;;;1.49;93.33
79374;BME280;68844;53.128;17.958;2023-11-18T04:51:21;101725.93;;;1.49;93.16
79374;BME280;68844;53.128;17.958;2023-11-18T04:53:48;101724.91;;;1.46;93.16
79374;BME280;68844;53.128;17.958;2023-11-18T04:56:15;101726.46;;;1.45;93.35
79374;BME280;68844;53.128;17.958;2023-11-18T04:58:46;101729.73;;;1.50;92.92
79374;BME280;68844;53.128;17.958;2023-11-18T05:01:14;101732.17;;;1.51;92.77
79374;BME280;68844;53.128;17.958;2023-11-18T05:03:41;101735.30;;;1.51;93.13
79374;BME280;68844;53.128;17.958;2023-11-18T05:06:07;101737.73;;;1.51;93.27
79374;BME280;68844;53.128;17.958;2023-11-18T05:08:34;101739.98;;;1.50;93.27
79374;BME280;68844;53.128;17.958;2023-11-18T05:11:02;101739.46;;;1.52;92.78
79374;BME280;68844;53.128;17.958;2023-11-18T05:13:31;101745.17;;;1.55;92.97
79374;BME280;68844;53.128;17.958;2023-11-18T05:15:59;101744.48;;;1.57;92.66
79374;BME280;68844;53.128;17.958;2023-11-18T05:18:26;101747.95;;;1.55;92.97
79374;BME280;68844;53.128;17.958;2023-11-18T05:20:56;101753.17;;;1.54;93.46
79374;BME280;68844;53.128;17.958;2023-11-18T05:23:23;101753.87;;;1.52;92.75
79374;BME280;68844;53.128;17.958;2023-11-18T05:25:50;101757.69;;;1.54;93.02
79374;BME280;68844;53.128;17.958;2023-11-18T05:28:17;101758.53;;;1.56;92.85
79374;BME280;68844;53.128;17.958;2023-11-18T05:30:44;101758.89;;;1.55;93.33
79374;BME280;68844;53.128;17.958;2023-11-18T05:33:11;101762.89;;;1.55;93.13
79374;BME280;68844;53.128;17.958;2023-11-18T05:35:44;101763.42;;;1.54;93.37
79374;BME280;68844;53.128;17.958;2023-11-18T05:38:16;101768.09;;;1.56;93.17
79374;BME280;68844;53.128;17.958;2023-11-18T05:40:45;101772.08;;;1.61;93.22
79374;BME280;68844;53.128;17.958;2023-11-18T05:43:26;101775.19;;;1.61;93.16
79374;BME280;68844;53.128;17.958;2023-11-18T05:45:56;101776.59;;;1.61;93.06
79374;BME280;68844;53.128;17.958;2023-11-18T05:48:44;101775.38;;;1.60;93.48
79374;BME280;68844;53.128;17.958;2023-11-18T05:51:11;101776.77;;;1.59;93.26
79374;BME280;68844;53.128;17.958;2023-11-18T05:53:42;101778.13;;;1.63;92.85
79374;BME280;68844;53.128;17.958;2023-11-18T05:56:13;101780.73;;;1.66;93.10
79374;BME280;68844;53.128;17.958;2023-11-18T05:58:40;101785.61;;;1.63;93.30
79374;BME280;68844;53.128;17.958;2023-11-18T06:01:06;101788.23;;;1.62;93.58
79374;BME280;68844;53.128;17.958;2023-11-18T06:03:34;101788.56;;;1.61;93.54
79374;BME280;68844;53.128;17.958;2023-11-18T06:06:13;101787.85;;;1.66;93.44
79374;BME280;68844;53.128;17.958;2023-11-18T06:08:40;101787.13;;;1.70;93.31
79374;BME280;68844;53.128;17.958;2023-11-18T06:11:11;101788.00;;;1.69;93.13
79374;BME280;68844;53.128;17.958;2023-11-18T06:13:51;101787.65;;;1.69;93.52
79374;BME280;68844;53.128;17.958;2023-11-18T06:16:19;101786.09;;;1.69;93.27
79374;BME280;68844;53.128;17.958;2023-11-18T06:18:55;101796.86;;;1.66;93.08
79374;BME280;68844;53.128;17.958;2023-11-18T06:21:24;101791.67;;;1.64;92.99
79374;BME280;68844;53.128;17.958;2023-11-18T06:23:51;101789.27;;;1.62;93.07
79374;BME280;68844;53.128;17.958;2023-11-18T06:26:18;101793.73;;;1.64;93.38
79374;BME280;68844;53.128;17.958;2023-11-18T06:28:45;101801.05;;;1.63;93.45
79374;BME280;68844;53.128;17.958;2023-11-18T06:31:12;101803.31;;;1.63;93.30
79374;BME280;68844;53.128;17.958;2023-11-18T06:33:44;101809.02;;;1.65;93.49
79374;BME280;68844;53.128;17.958;2023-11-18T06:38:38;101814.20;;;1.71;93.07
79374;BME280;68844;53.128;17.958;2023-11-18T06:41:05;101816.46;;;1.71;93.17
79374;BME280;68844;53.128;17.958;2023-11-18T06:43:35;101819.42;;;1.71;93.31
79374;BME280;68844;53.128;17.958;2023-11-18T06:46:19;101819.23;;;1.71;92.95
79374;BME280;68844;53.128;17.958;2023-11-18T06:48:49;101821.14;;;1.75;92.82
79374;BME280;68844;53.128;17.958;2023-11-18T06:51:16;101829.11;;;1.78;92.44
79374;BME280;68844;53.128;17.958;2023-11-18T06:53:43;101828.59;;;1.76;92.57
79374;BME280;68844;53.128;17.958;2023-11-18T06:56:12;101830.16;;;1.78;92.95
79374;BME280;68844;53.128;17.958;2023-11-18T06:58:39;101828.25;;;1.79;92.58
79374;BME280;68844;53.128;17.958;2023-11-18T07:01:07;101827.55;;;1.82;92.33
79374;BME280;68844;53.128;17.958;2023-11-18T07:03:34;101831.17;;;1.84;92.15
79374;BME280;68844;53.128;17.958;2023-11-18T07:06:02;101833.98;;;1.80;92.33
79374;BME280;68844;53.128;17.958;2023-11-18T07:08:28;101839.54;;;1.79;92.41
79374;BME280;68844;53.128;17.958;2023-11-18T07:10:55;101840.39;;;1.82;92.47
79374;BME280;68844;53.128;17.958;2023-11-18T07:13:23;101842.64;;;1.87;92.55
79374;BME280;68844;53.128;17.958;2023-11-18T07:15:50;101841.05;;;1.94;92.10
79374;BME280;68844;53.128;17.958;2023-11-18T07:18:17;101842.91;;;2.02;92.32
79374;BME280;68844;53.128;17.958;2023-11-18T07:20:44;101843.04;;;2.13;92.35
79374;BME280;68844;53.128;17.958;2023-11-18T07:23:10;101842.31;;;2.21;92.64
79374;BME280;68844;53.128;17.958;2023-11-18T07:25:38;101843.84;;;2.27;92.63
79374;BME280;68844;53.128;17.958;2023-11-18T07:28:05;101845.16;;;2.37;92.41
79374;BME280;68844;53.128;17.958;2023-11-18T07:30:31;101846.09;;;2.58;92.04
79374;BME280;68844;53.128;17.958;2023-11-18T07:32:58;101844.98;;;2.66;91.91
79374;BME280;68844;53.128;17.958;2023-11-18T07:35:27;101842.66;;;2.77;91.73
79374;BME280;68844;53.128;17.958;2023-11-18T07:37:54;101841.97;;;2.74;91.42
79374;BME280;68844;53.128;17.958;2023-11-18T07:40:20;101846.46;;;2.79;91.23
79374;BME280;68844;53.128;17.958;2023-11-18T07:42:54;101847.45;;;2.87;91.30
79374;BME280;68844;53.128;17.958;2023-11-18T07:45:28;101852.19;;;3.03;91.14
79374;BME280;68844;53.128;17.958;2023-11-18T07:47:55;101856.17;;;3.03;90.60
79374;BME280;68844;53.128;17.958;2023-11-18T07:50:22;101859.70;;;2.97;90.52
79374;BME280;68844;53.128;17.958;2023-11-18T07:52:50;101862.89;;;2.92;90.15
79374;BME280;68844;53.128;17.958;2023-11-18T07:55:17;101860.08;;;2.96;90.24
79374;BME280;68844;53.128;17.958;2023-11-18T07:57:44;101864.76;;;3.19;90.62
79374;BME280;68844;53.128;17.958;2023-11-18T08:00:12;101864.33;;;3.46;90.05
79374;BME280;68844;53.128;17.958;2023-11-18T08:02:41;101859.41;;;3.67;88.16
79374;BME280;68844;53.128;17.958;2023-11-18T08:05:08;101857.83;;;4.12;88.19
79374;BME280;68844;53.128;17.958;2023-11-18T08:07:39;101863.08;;;4.36;88.58
79374;BME280;68844;53.128;17.958;2023-11-18T08:10:07;101861.13;;;4.52;89.20
79374;BME280;68844;53.128;17.958;2023-11-18T08:12:39;101856.91;;;4.55;85.61
79374;BME280;68844;53.128;17.958;2023-11-18T08:15:09;101861.98;;;4.54;86.81
79374;BME280;68844;53.128;17.958;2023-11-18T08:17:36;101863.19;;;4.54;87.40
79374;BME280;68844;53.128;17.958;2023-11-18T08:20:03;101865.36;;;4.61;87.57
79374;BME280;68844;53.128;17.958;2023-11-18T08:22:41;101865.98;;;4.41;83.86
79374;BME280;68844;53.128;17.958;2023-11-18T08:25:11;101866.45;;;4.06;83.65
79374;BME280;68844;53.128;17.958;2023-11-18T08:27:42;101862.67;;;4.00;83.01
79374;BME280;68844;53.128;17.958;2023-11-18T08:30:09;101866.33;;;3.86;84.39
79374;BME280;68844;53.128;17.958;2023-11-18T08:32:42;101860.67;;;4.46;84.44
79374;BME280;68844;53.128;17.958;2023-11-18T08:35:15;101860.02;;;5.31;83.53
79374;BME280;68844;53.128;17.958;2023-11-18T08:37:42;101858.42;;;6.84;80.83
79374;BME280;68844;53.128;17.958;2023-11-18T08:40:10;101865.86;;;7.38;79.31
79374;BME280;68844;53.128;17.958;2023-11-18T08:42:44;101863.67;;;8.11;75.47
79374;BME280;68844;53.128;17.958;2023-11-18T08:45:17;101863.20;;;7.72;77.57
79374;BME280;68844;53.128;17.958;2023-11-18T08:47:45;101867.29;;;6.81;78.04
79374;BME280;68844;53.128;17.958;2023-11-18T08:50:14;101869.62;;;6.24;79.83
79374;BME280;68844;53.128;17.958;2023-11-18T08:52:41;101873.40;;;6.02;79.71
79374;BME280;68844;53.128;17.958;2023-11-18T08:55:10;101876.04;;;6.01;79.52
79374;BME280;68844;53.128;17.958;2023-11-18T08:57:48;101880.30;;;5.88;78.51
79374;BME280;68844;53.128;17.958;2023-11-18T09:00:31;101884.60;;;5.45;79.04
79374;BME280;68844;53.128;17.958;2023-11-18T09:03:24;101889.75;;;6.64;77.22
79374;BME280;68844;53.128;17.958;2023-11-18T09:05:58;101902.01;;;6.04;76.30
79374;BME280;68844;53.128;17.958;2023-11-18T09:08:29;101908.20;;;5.63;77.59
79374;BME280;68844;53.128;17.958;2023-11-18T09:10:58;101911.11;;;5.56;77.97
79374;BME280;68844;53.128;17.958;2023-11-18T09:13:26;101913.02;;;5.67;77.51
79374;BME280;68844;53.128;17.958;2023-11-18T09:15:57;101914.63;;;5.45;77.81
79374;BME280;68844;53.128;17.958;2023-11-18T09:18:25;101913.73;;;5.15;78.17
79374;BME280;68844;53.128;17.958;2023-11-18T09:20:52;101920.83;;;4.98;78.26
79374;BME280;68844;53.128;17.958;2023-11-18T09:23:22;101925.17;;;4.75;78.70
79374;BME280;68844;53.128;17.958;2023-11-18T09:25:52;101923.58;;;4.88;79.19
79374;BME280;68844;53.128;17.958;2023-11-18T09:28:20;101925.52;;;4.88;78.59
79374;BME280;68844;53.128;17.958;2023-11-18T09:30:47;101926.04;;;4.75;78.72
79374;BME280;68844;53.128;17.958;2023-11-18T09:33:20;101933.23;;;4.73;78.68
79374;BME280;68844;53.128;17.958;2023-11-18T09:35:55;101931.52;;;4.57;77.15
79374;BME280;68844;53.128;17.958;2023-11-18T09:38:29;101935.36;;;4.56;78.23
79374;BME280;68844;53.128;17.958;2023-11-18T09:40:57;101943.20;;;4.71;78.20
79374;BME280;68844;53.128;17.958;2023-11-18T09:43:35;101944.45;;;4.81;78.85
79374;BME280;68844;53.128;17.958;2023-11-18T09:46:24;101945.27;;;4.84;76.72
79374;BME280;68844;53.128;17.958;2023-11-18T09:49:39;101946.16;;;4.84;76.90
79374;BME280;68844;53.128;17.958;2023-11-18T09:51:42;101946.63;;;5.22;77.96
79374;BME280;68844;53.128;17.958;2023-11-18T09:54:25;101951.19;;;5.21;78.27
79374;BME280;68844;53.128;17.958;2023-11-18T09:56:56;101957.90;;;5.16;78.31
79374;BME280;68844;53.128;17.958;2023-11-18T10:00:03;101962.45;;;5.04;78.18
79374;BME280;68844;53.128;17.958;2023-11-18T10:02:39;101960.73;;;4.90;77.47
79374;BME280;68844;53.128;17.958;2023-11-18T10:05:07;101961.55;;;4.69;77.39
79374;BME280;68844;53.128;17.958;2023-11-18T10:07:40;101969.69;;;4.60;77.69
79374;BME280;68844;53.128;17.958;2023-11-18T10:10:08;101978.75;;;4.47;78.27
79374;BME280;68844;53.128;17.958;2023-11-18T10:12:42;101979.59;;;4.50;78.34
79374;BME280;68844;53.128;17.958;2023-11-18T10:15:13;101979.80;;;4.74;77.97
79374;BME280;68844;53.128;17.958;2023-11-18T10:17:45;101978.65;;;4.68;77.81
79374;BME280;68844;53.128;17.958;2023-11-18T10:20:43;101977.44;;;4.54;78.35
79374;BME280;68844;53.128;17.958;2023-11-18T10:23:15;101980.16;;;4.59;77.60
79374;BME280;68844;53.128;17.958;2023-11-18T10:25:49;101981.22;;;4.59;77.44
79374;BME280;68844;53.128;17.958;2023-11-18T10:28:23;101977.86;;;4.48;77.96
79374;BME280;68844;53.128;17.958;2023-11-18T10:30:56;101979.86;;;4.41;77.67
79374;BME280;68844;53.128;17.958;2023-11-18T10:33:42;101984.95;;;4.39;77.89
79374;BME280;68844;53.128;17.958;2023-11-18T10:36:20;101987.05;;;4.39;78.03
79374;BME280;68844;53.128;17.958;2023-11-18T10:38:51;101981.13;;;4.38;78.55
79374;BME280;68844;53.128;17.958;2023-11-18T10:41:22;101986.50;;;4.40;78.27
79374;BME280;68844;53.128;17.958;2023-11-18T10:44:05;101988.40;;;4.42;78.97
79374;BME280;68844;53.128;17.958;2023-11-18T10:46:32;101987.92;;;4.38;79.50
79374;BME280;68844;53.128;17.958;2023-11-18T10:48:58;101991.98;;;4.34;79.06
79374;BME280;68844;53.128;17.958;2023-11-18T10:51:25;101990.81;;;4.28;79.16
79374;BME280;68844;53.128;17.958;2023-11-18T10:53:53;101994.64;;;4.29;78.24
79374;BME280;68844;53.128;17.958;2023-11-18T10:56:26;101986.88;;;4.38;77.75
79374;BME280;68844;53.128;17.958;2023-11-18T10:58:57;101983.15;;;4.28;77.12
79374;BME280;68844;53.128;17.958;2023-11-18T11:01:31;101986.25;;;4.33;77.61
79374;BME280;68844;53.128;17.958;2023-11-18T11:03:59;101985.44;;;4.57;77.47
79374;BME280;68844;53.128;17.958;2023-11-18T11:06:26;101989.66;;;4.80;77.98
79374;BME280;68844;53.128;17.958;2023-11-18T11:08:57;101988.23;;;4.95;76.57
79374;BME280;68844;53.128;17.958;2023-11-18T11:11:31;101993.50;;;5.06;74.92
79374;BME280;68844;53.128;17.958;2023-11-18T11:14:03;102002.17;;;5.21;72.85
79374;BME280;68844;53.128;17.958;2023-11-18T11:16:38;102000.94;;;5.33;71.43
79374;BME280;68844;53.128;17.958;2023-11-18T11:19:33;102003.48;;;5.39;67.69
79374;BME280;68844;53.128;17.958;2023-11-18T11:22:11;101995.30;;;5.48;70.31
79374;BME280;68844;53.128;17.958;2023-11-18T11:25:16;101997.38;;;6.01;70.49
79374;BME280;68844;53.128;17.958;2023-11-18T11:27:55;102002.49;;;6.54;70.97
79374;BME280;68844;53.128;17.958;2023-11-18T11:30:29;102005.95;;;6.56;70.63
79374;BME280;68844;53.128;17.958;2023-11-18T11:33:10;102001.65;;;6.52;70.86
79374;BME280;68844;53.128;17.958;2023-11-18T11:35:43;102008.01;;;6.41;70.43
79374;BME280;68844;53.128;17.958;2023-11-18T11:38:13;102009.96;;;6.30;68.86
79374;BME280;68844;53.128;17.958;2023-11-18T11:40:41;102009.15;;;6.08;70.10
79374;BME280;68844;53.128;17.958;2023-11-18T11:43:10;102008.51;;;5.95;70.20
79374;BME280;68844;53.128;17.958;2023-11-18T11:45:37;102007.86;;;5.81;67.97
79374;BME280;68844;53.128;17.958;2023-11-18T11:48:06;102010.48;;;5.70;68.78
79374;BME280;68844;53.128;17.958;2023-11-18T11:51:02;102017.45;;;5.62;70.33
79374;BME280;68844;53.128;17.958;2023-11-18T11:53:34;102023.15;;;5.54;69.56
79374;BME280;68844;53.128;17.958;2023-11-18T11:56:05;102017.09;;;5.40;69.28
79374;BME280;68844;53.128;17.958;2023-11-18T11:58:34;102015.58;;;5.36;70.13
79374;BME280;68844;53.128;17.958;2023-11-18T12:01:24;102012.07;;;5.37;68.08
79374;BME280;68844;53.128;17.958;2023-11-18T12:03:52;102010.54;;;5.34;68.60
79374;BME280;68844;53.128;17.958;2023-11-18T12:06:24;102011.19;;;5.37;69.72
79374;BME280;68844;53.128;17.958;2023-11-18T12:08:53;102007.55;;;5.36;69.17
79374;BME280;68844;53.128;17.958;2023-11-18T12:11:21;102011.77;;;5.34;68.81
79374;BME280;68844;53.128;17.958;2023-11-18T12:14:05;102012.10;;;5.35;68.02
79374;BME280;68844;53.128;17.958;2023-11-18T12:17:03;102018.19;;;5.36;69.36
79374;BME280;68844;53.128;17.958;2023-11-18T12:19:38;102019.97;;;5.34;68.83
79374;BME280;68844;53.128;17.958;2023-11-18T12:22:19;102021.38;;;5.22;68.36
79374;BME280;68844;53.128;17.958;2023-11-18T12:32:57;102020.13;;;4.85;68.53
79374;BME280;68844;53.128;17.958;2023-11-18T12:35:32;102017.66;;;4.74;68.95
79374;BME280;68844;53.128;17.958;2023-11-18T12:38:14;102015.27;;;4.69;68.45
79374;BME280;68844;53.128;17.958;2023-11-18T12:40:54;102014.02;;;4.58;69.05
79374;BME280;68844;53.128;17.958;2023-11-18T12:43:46;102013.38;;;4.54;68.85
79374;BME280;68844;53.128;17.958;2023-11-18T12:49:03;102014.70;;;4.45;69.67
79374;BME280;68844;53.128;17.958;2023-11-18T12:51:32;102016.30;;;4.43;69.22
79374;BME280;68844;53.128;17.958;2023-11-18T12:54:01;102015.08;;;4.42;69.69
79374;BME280;68844;53.128;17.958;2023-11-18T12:56:29;102018.98;;;4.36;69.26
79374;BME280;68844;53.128;17.958;2023-11-18T12:59:04;102024.00;;;4.23;69.09
79374;BME280;68844;53.128;17.958;2023-11-18T13:01:33;102031.84;;;4.24;69.28
79374;BME280;68844;53.128;17.958;2023-11-18T13:04:05;102032.98;;;4.32;70.11
79374;BME280;68844;53.128;17.958;2023-11-18T13:06:31;102033.40;;;4.41;70.33
79374;BME280;68844;53.128;17.958;2023-11-18T13:08:58;102032.77;;;4.36;70.43
79374;BME280;68844;53.128;17.958;2023-11-18T13:11:25;102033.48;;;4.35;70.02
79374;BME280;68844;53.128;17.958;2023-11-18T13:13:52;102028.48;;;4.28;70.52
79374;BME280;68844;53.128;17.958;2023-11-18T13:16:19;102025.04;;;4.26;69.94
79374;BME280;68844;53.128;17.958;2023-11-18T13:18:48;102031.00;;;4.22;69.89
79374;BME280;68844;53.128;17.958;2023-11-18T13:21:19;102037.27;;;4.22;71.30